Time;durP1;ratioP1;P1;durP2;ratioP2;P2;SDS_P1;SDS_P2;PMS_P1;PMS_P2;Temp;Humidity;BMP_temperature;BMP_pressure;BME280_temperature;BME280_humidity;BME280_pressure;Samples;Min_cycle;Max_cycle;Signal;HPM_P1;HPM_P2
2023/01/15 00:00:39;;;;;;;;;;;20.90;46.30;;;;;;3054237;19;4454;-22
2023/01/15 00:01:40;;;;;;;;;;;20.90;46.40;;;;;;3055471;19;4478;-23
2023/01/15 00:02:41;;;;;;;;;;;20.90;46.50;;;;;;3054182;19;4363;-23
2023/01/15 00:03:42;;;;;;;;;;;20.90;46.40;;;;;;3055577;19;4661;-23
2023/01/15 00:04:42;;;;;;;;;;;20.90;46.50;;;;;;3053115;19;4719;-23
2023/01/15 00:05:43;;;;;;;;;;;20.90;46.60;;;;;;3053760;19;6502;-22
2023/01/15 00:06:43;;;;;;;;;;;20.80;46.50;;;;;;3054385;19;4360;-23
2023/01/15 00:07:44;;;;;;;;;;;20.80;46.50;;;;;;3055074;19;4497;-23
2023/01/15 00:08:45;;;;;;;;;;;20.80;46.40;;;;;;3055546;19;4532;-22
2023/01/15 00:09:45;;;;;;;;;;;20.90;46.50;;;;;;3052781;19;4632;-23
2023/01/15 00:10:46;;;;;;;;;;;20.80;46.50;;;;;;3051291;19;4209;-23
2023/01/15 00:11:47;;;;;;;;;;;20.80;46.50;;;;;;3053025;19;4491;-24
2023/01/15 00:12:47;;;;;;;;;;;20.80;46.60;;;;;;3054347;19;4645;-23
2023/01/15 00:13:48;;;;;;;;;;;20.80;46.60;;;;;;3055688;19;4525;-28
2023/01/15 00:14:49;;;;;;;;;;;20.80;46.60;;;;;;3054406;19;4495;-22
2023/01/15 00:15:49;;;;;;;;;;;20.80;46.60;;;;;;3051963;19;4694;-23
2023/01/15 00:16:51;;;;;;;;;;;20.80;47.30;;;;;;3052193;19;4526;-23
2023/01/15 00:17:51;;;;;;;;;;;20.80;46.60;;;;;;3052062;19;4627;-23
2023/01/15 00:18:54;;;;;;;;;;;20.80;46.70;;;;;;3054004;19;4214;-23
2023/01/15 00:19:54;;;;;;;;;;;20.80;46.70;;;;;;3053562;19;4296;-22
2023/01/15 00:21:01;;;;;;;;;;;20.80;46.70;;;;;;3053396;19;4475;-23
2023/01/15 00:22:02;;;;;;;;;;;20.80;46.70;;;;;;3052961;19;4500;-23
2023/01/15 00:23:03;;;;;;;;;;;20.80;46.80;;;;;;3054151;19;4574;-22
2023/01/15 00:28:02;;;;;;;;;;;20.80;46.70;;;;;;3054035;19;4470;-23
2023/01/15 00:29:02;;;;;;;;;;;20.80;46.70;;;;;;3052364;19;4351;-23
2023/01/15 00:30:04;;;;;;;;;;;20.80;46.70;;;;;;3054798;19;4489;-23
2023/01/15 00:31:05;;;;;;;;;;;20.80;46.80;;;;;;3054006;19;4474;-23
2023/01/15 00:32:06;;;;;;;;;;;20.80;46.80;;;;;;3052753;19;4478;-25
2023/01/15 00:33:07;;;;;;;;;;;20.70;46.70;;;;;;3051559;19;4641;-23
2023/01/15 00:34:08;;;;;;;;;;;20.70;46.70;;;;;;3053081;19;4383;-23
2023/01/15 00:35:13;;;;;;;;;;;20.70;46.70;;;;;;3052040;19;4517;-23
2023/01/15 00:36:14;;;;;;;;;;;20.80;46.80;;;;;;3052388;19;4528;-22
2023/01/15 00:37:14;;;;;;;;;;;20.80;46.80;;;;;;3052240;19;4129;-23
2023/01/15 00:38:15;;;;;;;;;;;20.70;46.70;;;;;;3053325;19;8964;-23
2023/01/15 00:39:15;;;;;;;;;;;20.70;46.70;;;;;;3052155;19;4557;-22
2023/01/15 00:40:18;;;;;;;;;;;20.70;46.90;;;;;;3050269;19;4425;-23
2023/01/15 00:41:18;;;;;;;;;;;20.70;46.80;;;;;;3050685;19;4598;-23
2023/01/15 00:42:19;;;;;;;;;;;20.70;46.70;;;;;;3053102;19;4236;-23
2023/01/15 00:43:20;;;;;;;;;;;20.70;46.70;;;;;;3052485;19;4371;-23
2023/01/15 00:44:20;;;;;;;;;;;20.70;46.80;;;;;;3052976;19;4523;-22
2023/01/15 00:45:21;;;;;;;;;;;20.70;46.80;;;;;;3051126;19;4598;-22
2023/01/15 00:46:22;;;;;;;;;;;20.70;46.80;;;;;;3051354;19;4552;-23
2023/01/15 00:47:23;;;;;;;;;;;20.70;46.80;;;;;;3052370;19;4494;-22
2023/01/15 00:48:23;;;;;;;;;;;20.70;46.90;;;;;;3052384;19;4288;-23
2023/01/15 00:49:24;;;;;;;;;;;20.70;46.80;;;;;;3052297;19;4697;-23
2023/01/15 00:50:25;;;;;;;;;;;20.70;46.80;;;;;;3051778;19;4411;-22
2023/01/15 00:51:25;;;;;;;;;;;20.70;46.80;;;;;;3052616;19;4485;-24
2023/01/15 00:52:26;;;;;;;;;;;20.70;46.80;;;;;;3053069;19;4493;-22
2023/01/15 00:53:27;;;;;;;;;;;20.70;46.80;;;;;;3052910;19;4523;-23
2023/01/15 00:54:27;;;;;;;;;;;20.70;46.80;;;;;;3052178;19;4593;-23
2023/01/15 00:55:28;;;;;;;;;;;20.70;46.80;;;;;;3052807;19;4505;-23
2023/01/15 00:56:28;;;;;;;;;;;20.70;46.80;;;;;;3053365;19;4360;-22
2023/01/15 00:57:29;;;;;;;;;;;20.70;46.80;;;;;;3052365;19;4462;-22
2023/01/15 00:58:30;;;;;;;;;;;20.70;46.80;;;;;;3051789;19;4238;-23
2023/01/15 00:59:30;;;;;;;;;;;20.70;46.80;;;;;;3050989;19;4398;-23
2023/01/15 01:00:31;;;;;;;;;;;20.70;46.80;;;;;;3052199;19;4513;-23
2023/01/15 01:01:32;;;;;;;;;;;20.70;46.80;;;;;;3051756;19;4419;-22
2023/01/15 01:02:32;;;;;;;;;;;20.70;46.80;;;;;;3053274;19;4379;-22
2023/01/15 01:03:33;;;;;;;;;;;20.70;46.80;;;;;;3053322;19;4527;-23
2023/01/15 01:04:34;;;;;;;;;;;20.70;46.80;;;;;;3052721;19;4505;-23
2023/01/15 01:05:34;;;;;;;;;;;20.70;47.50;;;;;;3052461;19;4654;-22
2023/01/15 01:06:35;;;;;;;;;;;20.60;46.80;;;;;;3050815;19;4300;-23
2023/01/15 01:07:36;;;;;;;;;;;20.70;46.80;;;;;;3053669;19;4539;-23
2023/01/15 01:08:36;;;;;;;;;;;20.60;46.80;;;;;;3052720;19;4547;-23
2023/01/15 01:09:37;;;;;;;;;;;20.60;46.80;;;;;;3050839;19;4468;-22
2023/01/15 01:10:37;;;;;;;;;;;20.60;46.80;;;;;;3052588;19;4529;-23
2023/01/15 01:11:38;;;;;;;;;;;20.70;46.80;;;;;;3052934;19;4359;-22
2023/01/15 01:12:39;;;;;;;;;;;20.60;46.80;;;;;;3052033;19;4411;-23
2023/01/15 01:13:39;;;;;;;;;;;20.70;46.80;;;;;;3054658;19;4512;-22
2023/01/15 01:14:40;;;;;;;;;;;20.60;46.80;;;;;;3053134;19;4417;-23
2023/01/15 01:15:41;;;;;;;;;;;20.70;46.80;;;;;;3050463;19;4602;-22
2023/01/15 01:16:42;;;;;;;;;;;20.60;46.80;;;;;;3052336;19;4388;-23
2023/01/15 01:17:42;;;;;;;;;;;20.70;46.70;;;;;;3052439;19;4284;-23
2023/01/15 01:18:43;;;;;;;;;;;20.60;46.70;;;;;;3052527;19;4496;-22
2023/01/15 01:19:43;;;;;;;;;;;20.70;46.70;;;;;;3051845;19;4538;-22
2023/01/15 01:20:44;;;;;;;;;;;20.70;46.70;;;;;;3052674;19;4720;-23
2023/01/15 01:21:45;;;;;;;;;;;20.60;46.50;;;;;;3053454;19;4381;-23
2023/01/15 01:22:47;;;;;;;;;;;20.60;46.60;;;;;;3051258;19;4365;-23
2023/01/15 01:23:48;;;;;;;;;;;20.60;46.60;;;;;;3051325;19;4516;-23
2023/01/15 01:24:48;;;;;;;;;;;20.60;46.50;;;;;;3051004;19;4570;-23
2023/01/15 01:25:49;;;;;;;;;;;20.60;46.60;;;;;;3053282;19;4633;-23
2023/01/15 01:26:50;;;;;;;;;;;20.60;46.50;;;;;;3052206;19;4425;-22
2023/01/15 01:27:51;;;;;;;;;;;20.60;46.50;;;;;;3053217;19;4371;-22
2023/01/15 01:28:52;;;;;;;;;;;20.60;46.50;;;;;;3052127;19;4517;-23
2023/01/15 01:29:52;;;;;;;;;;;20.60;46.50;;;;;;3051942;19;4480;-22
2023/01/15 01:30:53;;;;;;;;;;;20.60;46.50;;;;;;3050128;19;4449;-22
2023/01/15 01:31:53;;;;;;;;;;;20.60;46.50;;;;;;3052398;19;4485;-22
2023/01/15 01:32:54;;;;;;;;;;;20.60;46.40;;;;;;3051053;19;4486;-22
2023/01/15 01:33:56;;;;;;;;;;;20.60;46.50;;;;;;3052163;19;4326;-23
2023/01/15 01:34:56;;;;;;;;;;;20.60;46.90;;;;;;3051897;19;4500;-22
2023/01/15 01:35:57;;;;;;;;;;;20.60;46.40;;;;;;3051823;19;4459;-22
2023/01/15 01:36:58;;;;;;;;;;;20.60;46.30;;;;;;3051985;19;4596;-23
2023/01/15 01:37:58;;;;;;;;;;;20.60;46.20;;;;;;3052730;19;4328;-22
2023/01/15 01:38:59;;;;;;;;;;;20.60;46.30;;;;;;3050991;19;4385;-23
2023/01/15 01:40:00;;;;;;;;;;;20.60;46.30;;;;;;3053212;19;4495;-22
2023/01/15 01:41:01;;;;;;;;;;;20.60;46.30;;;;;;3049923;19;4521;-23
2023/01/15 01:42:02;;;;;;;;;;;20.60;46.20;;;;;;3051497;19;4553;-22
2023/01/15 01:43:02;;;;;;;;;;;20.60;46.30;;;;;;3052319;19;4510;-23
2023/01/15 01:44:05;;;;;;;;;;;20.60;46.20;;;;;;3050888;19;4461;-22
2023/01/15 01:45:27;;;;;;;;;;;20.60;46.20;;;;;;3050215;19;4471;-22
2023/01/15 01:46:30;;;;;;;;;;;20.60;46.20;;;;;;2948354;19;2003997;-23
2023/01/15 01:47:30;;;;;;;;;;;20.60;46.20;;;;;;3052571;19;4550;-23
2023/01/15 01:48:32;;;;;;;;;;;20.60;46.20;;;;;;3050149;19;4528;-22
2023/01/15 01:49:33;;;;;;;;;;;20.60;46.10;;;;;;3050794;19;4519;-23
2023/01/15 01:50:34;;;;;;;;;;;20.60;46.20;;;;;;3051386;19;4650;-22
2023/01/15 01:51:38;;;;;;;;;;;20.60;46.10;;;;;;3050350;19;4567;-22
2023/01/15 01:52:48;;;;;;;;;;;20.60;46.00;;;;;;3050704;19;4481;-22
2023/01/15 01:53:49;;;;;;;;;;;20.50;46.00;;;;;;3048929;19;4365;-22
2023/01/15 01:54:49;;;;;;;;;;;20.50;46.00;;;;;;3048989;19;4209;-23
2023/01/15 01:55:50;;;;;;;;;;;20.50;45.90;;;;;;3051942;19;4544;-23
2023/01/15 01:56:51;;;;;;;;;;;20.50;46.00;;;;;;3051023;19;4578;-23
2023/01/15 01:57:52;;;;;;;;;;;20.60;45.90;;;;;;3049975;19;4548;-23
2023/01/15 01:58:53;;;;;;;;;;;20.50;45.90;;;;;;3050056;19;4585;-23
2023/01/15 01:59:54;;;;;;;;;;;20.50;45.90;;;;;;3050316;19;4722;-23
2023/01/15 02:00:55;;;;;;;;;;;20.50;45.90;;;;;;3052485;19;4476;-22
2023/01/15 02:01:55;;;;;;;;;;;20.50;45.90;;;;;;3051128;19;4525;-22
2023/01/15 02:02:57;;;;;;;;;;;20.50;45.90;;;;;;3049000;19;4203;-22
2023/01/15 02:03:57;;;;;;;;;;;20.50;45.90;;;;;;3049561;19;4672;-22
2023/01/15 02:04:58;;;;;;;;;;;20.50;45.90;;;;;;3049904;19;4472;-22
2023/01/15 02:06:00;;;;;;;;;;;20.50;45.90;;;;;;3049999;19;4708;-23
2023/01/15 02:07:00;;;;;;;;;;;20.50;45.90;;;;;;3051294;19;4481;-23
2023/01/15 02:08:01;;;;;;;;;;;20.50;45.90;;;;;;3050440;19;4503;-23
2023/01/15 02:09:03;;;;;;;;;;;20.50;45.90;;;;;;3048778;19;4505;-22
2023/01/15 02:10:04;;;;;;;;;;;20.50;45.90;;;;;;3050300;19;4496;-23
2023/01/15 02:11:05;;;;;;;;;;;20.50;45.90;;;;;;3049351;19;4331;-23
2023/01/15 02:12:13;;;;;;;;;;;20.50;45.90;;;;;;3053328;19;4169;-22
2023/01/15 02:13:27;;;;;;;;;;;20.50;45.90;;;;;;3050971;19;4415;-23
2023/01/15 02:14:31;;;;;;;;;;;20.40;45.80;;;;;;3052049;19;4527;-23
2023/01/15 02:15:37;;;;;;;;;;;20.40;45.80;;;;;;3049983;19;4552;-22
2023/01/15 02:17:00;;;;;;;;;;;20.40;45.70;;;;;;3053131;19;4399;-23
2023/01/15 02:18:07;;;;;;;;;;;20.40;45.70;;;;;;3053971;19;4483;-23
2023/01/15 02:19:27;;;;;;;;;;;20.40;45.70;;;;;;3054561;19;5901;-22
2023/01/15 02:20:36;;;;;;;;;;;20.40;45.70;;;;;;3052829;19;4449;-23
2023/01/15 02:21:50;;;;;;;;;;;20.40;45.80;;;;;;3052549;19;4443;-28
2023/01/15 02:23:00;;;;;;;;;;;20.40;45.60;;;;;;3053271;19;4499;-23
2023/01/15 02:24:22;;;;;;;;;;;20.50;45.70;;;;;;3052246;19;4507;-23
2023/01/15 02:26:01;;;;;;;;;;;20.40;45.60;;;;;;2952723;19;2004055;-23
2023/01/15 02:27:13;;;;;;;;;;;20.40;45.70;;;;;;3053942;19;4366;-23
2023/01/15 02:28:33;;;;;;;;;;;20.40;45.60;;;;;;3053129;19;4454;-22
2023/01/15 02:29:48;;;;;;;;;;;20.40;45.60;;;;;;3054600;19;4488;-22
2023/01/15 02:30:52;;;;;;;;;;;20.40;45.60;;;;;;3054217;19;4507;-23
2023/01/15 02:31:53;;;;;;;;;;;20.40;45.60;;;;;;3054081;19;4560;-22
2023/01/15 02:33:23;;;;;;;;;;;20.40;45.60;;;;;;3055745;19;4478;-23
2023/01/15 02:34:30;;;;;;;;;;;20.40;45.50;;;;;;2952565;19;2004190;-21
2023/01/15 02:35:37;;;;;;;;;;;20.40;45.50;;;;;;3053886;19;4373;-23
2023/01/15 02:36:44;;;;;;;;;;;20.40;45.50;;;;;;3052930;19;4518;-23
2023/01/15 02:37:47;;;;;;;;;;;20.40;45.50;;;;;;3053325;19;4379;-23
2023/01/15 02:38:48;;;;;;;;;;;20.40;45.40;;;;;;3055593;19;4503;-23
2023/01/15 02:39:49;;;;;;;;;;;20.40;45.40;;;;;;3055563;19;4534;-22
2023/01/15 02:40:50;;;;;;;;;;;20.40;45.40;;;;;;3056144;19;4493;-23
2023/01/15 02:41:51;;;;;;;;;;;20.40;45.40;;;;;;3055018;19;4547;-23
2023/01/15 02:42:52;;;;;;;;;;;20.40;45.40;;;;;;3054746;19;4474;-22
2023/01/15 02:43:53;;;;;;;;;;;20.40;45.30;;;;;;3055832;19;4459;-23
2023/01/15 02:44:54;;;;;;;;;;;20.40;45.30;;;;;;3052112;19;4479;-22
2023/01/15 02:45:56;;;;;;;;;;;20.30;45.20;;;;;;3051460;19;4454;-22
2023/01/15 02:46:56;;;;;;;;;;;20.40;45.40;;;;;;3054960;19;4468;-23
2023/01/15 02:48:01;;;;;;;;;;;20.40;45.30;;;;;;3051700;19;4477;-22
2023/01/15 02:49:02;;;;;;;;;;;20.40;45.30;;;;;;3053676;19;4704;-23
2023/01/15 02:50:05;;;;;;;;;;;20.30;45.30;;;;;;3053929;19;4513;-23
2023/01/15 02:51:09;;;;;;;;;;;20.30;45.20;;;;;;3053498;19;4503;-24
2023/01/15 02:52:13;;;;;;;;;;;20.30;45.20;;;;;;3055201;19;4546;-23
2023/01/15 02:53:18;;;;;;;;;;;20.30;45.20;;;;;;3054752;19;4388;-22
2023/01/15 02:54:18;;;;;;;;;;;20.30;45.20;;;;;;3055729;19;4525;-22
2023/01/15 02:55:22;;;;;;;;;;;20.30;45.20;;;;;;3055825;19;4508;-22
2023/01/15 02:56:25;;;;;;;;;;;20.30;45.20;;;;;;3055316;19;4445;-22
2023/01/15 02:57:27;;;;;;;;;;;20.30;45.20;;;;;;3053334;19;4409;-22
2023/01/15 02:58:31;;;;;;;;;;;20.30;45.20;;;;;;3053397;19;4397;-22
2023/01/15 02:59:39;;;;;;;;;;;20.30;45.20;;;;;;3052832;19;4565;-23
2023/01/15 03:00:41;;;;;;;;;;;20.30;45.10;;;;;;3052827;19;4530;-23
2023/01/15 03:01:50;;;;;;;;;;;20.30;45.20;;;;;;3051720;19;4647;-23
2023/01/15 03:03:02;;;;;;;;;;;20.30;45.20;;;;;;3049862;19;4704;-23
2023/01/15 03:04:09;;;;;;;;;;;20.30;45.10;;;;;;3051873;19;4320;-22
2023/01/15 03:05:26;;;;;;;;;;;20.30;45.10;;;;;;3051182;19;4335;-22
2023/01/15 03:06:36;;;;;;;;;;;20.30;45.00;;;;;;3050310;19;4354;-22
2023/01/15 03:07:41;;;;;;;;;;;20.30;45.00;;;;;;3054375;19;4555;-23
2023/01/15 03:08:41;;;;;;;;;;;20.30;45.00;;;;;;3053336;19;4607;-23
2023/01/15 03:09:42;;;;;;;;;;;20.30;45.00;;;;;;3054512;19;4494;-22
2023/01/15 03:10:47;;;;;;;;;;;20.30;44.90;;;;;;3053708;19;4363;-23
2023/01/15 03:12:12;;;;;;;;;;;20.30;44.90;;;;;;3051829;19;5248;-23
2023/01/15 03:13:20;;;;;;;;;;;20.30;44.90;;;;;;3050745;19;4495;-22
2023/01/15 03:14:23;;;;;;;;;;;20.30;44.90;;;;;;3051410;19;4353;-23
2023/01/15 03:16:46;;;;;;;;;;;20.30;44.80;;;;;;3053239;19;4731;-22
2023/01/15 03:17:53;;;;;;;;;;;20.30;44.80;;;;;;3053666;19;4733;-23
2023/01/15 03:19:05;;;;;;;;;;;20.20;44.70;;;;;;3052086;19;4549;-23
2023/01/15 03:20:25;;;;;;;;;;;20.20;44.80;;;;;;3052013;19;4611;-23
2023/01/15 03:21:47;;;;;;;;;;;20.30;44.80;;;;;;3050842;19;4520;-23
2023/01/15 03:22:50;;;;;;;;;;;20.30;44.80;;;;;;3051597;19;4426;-22
2023/01/15 03:23:51;;;;;;;;;;;20.30;44.80;;;;;;3054164;19;4532;-22
2023/01/15 03:24:54;;;;;;;;;;;20.20;44.70;;;;;;3052473;19;4751;-23
2023/01/15 03:25:55;;;;;;;;;;;20.20;44.70;;;;;;3053038;19;4516;-22
2023/01/15 03:26:55;;;;;;;;;;;20.20;44.60;;;;;;3054327;19;4565;-21
2023/01/15 03:27:58;;;;;;;;;;;20.20;44.60;;;;;;3052928;19;4934;-22
2023/01/15 03:28:59;;;;;;;;;;;20.20;44.70;;;;;;3053084;19;4300;-23
2023/01/15 03:30:03;;;;;;;;;;;20.20;44.70;;;;;;3052629;19;4487;-23
2023/01/15 03:31:03;;;;;;;;;;;20.20;44.60;;;;;;3052867;19;4387;-23
2023/01/15 03:32:04;;;;;;;;;;;20.20;44.60;;;;;;3053515;19;4326;-23
2023/01/15 03:33:10;;;;;;;;;;;20.20;44.70;;;;;;3048840;19;4476;-23
2023/01/15 03:34:11;;;;;;;;;;;20.20;44.60;;;;;;3053738;19;4064;-23
2023/01/15 03:35:39;;;;;;;;;;;20.20;44.70;;;;;;3053519;19;4410;-23
2023/01/15 03:36:39;;;;;;;;;;;20.20;44.60;;;;;;3051005;19;4431;-23
2023/01/15 03:37:40;;;;;;;;;;;20.20;44.60;;;;;;3054152;19;4705;-22
2023/01/15 03:38:41;;;;;;;;;;;20.20;44.60;;;;;;3051619;19;4449;-22
2023/01/15 03:39:41;;;;;;;;;;;20.20;44.60;;;;;;3052047;19;4540;-23
2023/01/15 03:40:53;;;;;;;;;;;20.20;44.60;;;;;;3051506;19;4526;-23
2023/01/15 03:42:15;;;;;;;;;;;20.20;44.60;;;;;;3053181;19;4257;-23
2023/01/15 03:44:50;;;;;;;;;;;20.20;44.60;;;;;;3051762;19;4506;-22
2023/01/15 03:45:51;;;;;;;;;;;20.20;44.60;;;;;;3052767;19;4548;-23
2023/01/15 03:47:04;;;;;;;;;;;20.10;44.60;;;;;;3051878;19;4406;-23
2023/01/15 03:48:17;;;;;;;;;;;20.10;44.60;;;;;;3052764;19;4507;-22
2023/01/15 03:49:21;;;;;;;;;;;20.10;44.60;;;;;;3052692;19;4462;-23
2023/01/15 03:50:32;;;;;;;;;;;20.20;44.60;;;;;;3052881;19;4532;-23
2023/01/15 03:52:00;;;;;;;;;;;20.10;44.60;;;;;;3050896;19;4538;-22
2023/01/15 03:53:03;;;;;;;;;;;20.10;44.60;;;;;;3052972;19;4369;-23
2023/01/15 03:54:07;;;;;;;;;;;20.10;44.60;;;;;;3051440;19;4468;-23
2023/01/15 03:55:11;;;;;;;;;;;20.10;44.50;;;;;;3052529;19;4553;-23
2023/01/15 03:56:34;;;;;;;;;;;20.10;44.50;;;;;;3051981;19;4335;-23
2023/01/15 03:57:48;;;;;;;;;;;20.10;44.40;;;;;;3050920;19;4454;-22
2023/01/15 03:59:00;;;;;;;;;;;20.10;44.50;;;;;;3053639;19;4505;-23
2023/01/15 04:00:06;;;;;;;;;;;20.10;44.40;;;;;;3052425;19;4502;-23
2023/01/15 04:01:09;;;;;;;;;;;20.10;44.40;;;;;;3053973;19;4455;-22
2023/01/15 04:02:10;;;;;;;;;;;20.10;44.40;;;;;;3051021;19;4411;-22
2023/01/15 04:03:10;;;;;;;;;;;20.10;44.40;;;;;;3052156;19;4560;-22
2023/01/15 04:04:11;;;;;;;;;;;20.10;44.40;;;;;;3051563;19;4901;-23
2023/01/15 04:05:12;;;;;;;;;;;20.10;44.40;;;;;;3053868;19;4068;-23
2023/01/15 04:06:13;;;;;;;;;;;20.10;44.40;;;;;;3052473;19;4427;-22
2023/01/15 04:07:13;;;;;;;;;;;20.10;44.30;;;;;;3050120;19;4696;-22
2023/01/15 04:08:14;;;;;;;;;;;20.10;44.30;;;;;;3050879;19;4568;-23
2023/01/15 04:09:15;;;;;;;;;;;20.10;44.30;;;;;;3052863;19;4609;-22
2023/01/15 04:10:16;;;;;;;;;;;20.10;44.30;;;;;;3052616;19;4388;-23
2023/01/15 04:11:23;;;;;;;;;;;20.10;44.30;;;;;;3052989;19;4489;-27
2023/01/15 04:12:26;;;;;;;;;;;20.10;44.30;;;;;;3052508;19;4460;-22
2023/01/15 04:13:27;;;;;;;;;;;20.10;44.30;;;;;;3053024;19;4693;-23
2023/01/15 04:14:28;;;;;;;;;;;20.10;44.30;;;;;;3052767;19;4517;-22
2023/01/15 04:15:29;;;;;;;;;;;20.10;44.30;;;;;;3051692;19;4562;-23
2023/01/15 04:16:30;;;;;;;;;;;20.10;44.30;;;;;;3051729;19;4534;-22
2023/01/15 04:17:31;;;;;;;;;;;20.10;44.30;;;;;;3050491;19;4358;-22
2023/01/15 04:18:32;;;;;;;;;;;20.10;44.20;;;;;;3047678;19;4248;-22
2023/01/15 04:19:32;;;;;;;;;;;20.10;44.30;;;;;;3051462;19;4722;-23
2023/01/15 04:20:33;;;;;;;;;;;20.10;44.20;;;;;;3051233;19;4496;-22
2023/01/15 04:21:34;;;;;;;;;;;20.10;44.30;;;;;;3051923;19;4413;-22
2023/01/15 04:22:35;;;;;;;;;;;20.10;44.20;;;;;;3052981;19;4350;-23
2023/01/15 04:23:35;;;;;;;;;;;20.10;44.20;;;;;;3053170;19;4496;-22
2023/01/15 04:24:36;;;;;;;;;;;20.10;44.20;;;;;;3053264;19;4493;-23
2023/01/15 04:25:38;;;;;;;;;;;20.10;44.20;;;;;;3053064;19;4519;-22
2023/01/15 04:26:38;;;;;;;;;;;20.10;44.20;;;;;;3052919;19;4371;-23
2023/01/15 04:27:39;;;;;;;;;;;20.10;44.20;;;;;;3051954;19;4567;-22
2023/01/15 04:28:40;;;;;;;;;;;20.10;44.20;;;;;;3052880;19;4618;-23
2023/01/15 04:29:40;;;;;;;;;;;20.10;44.30;;;;;;3053098;19;4487;-22
2023/01/15 04:30:42;;;;;;;;;;;20.10;44.20;;;;;;3053095;19;4534;-22
2023/01/15 04:31:42;;;;;;;;;;;20.10;44.20;;;;;;3053568;19;4548;-23
2023/01/15 04:32:43;;;;;;;;;;;20.00;44.20;;;;;;3053632;19;4521;-23
2023/01/15 04:33:44;;;;;;;;;;;20.00;44.30;;;;;;3054000;19;4546;-22
2023/01/15 04:34:44;;;;;;;;;;;20.00;44.20;;;;;;3052818;19;4384;-23
2023/01/15 04:35:46;;;;;;;;;;;19.90;44.40;;;;;;3054130;19;4540;-22
2023/01/15 04:36:47;;;;;;;;;;;19.90;44.60;;;;;;3053511;19;4584;-23
2023/01/15 04:37:47;;;;;;;;;;;19.90;45.20;;;;;;3054989;19;4565;-23
2023/01/15 04:38:48;;;;;;;;;;;20.00;44.50;;;;;;3055155;19;4607;-28
2023/01/15 04:39:49;;;;;;;;;;;20.00;44.40;;;;;;3050253;19;4513;-23
2023/01/15 04:44:49;;;;;;;;;;;20.40;43.60;;;;;;3054710;19;4397;-23
2023/01/15 04:45:50;;;;;;;;;;;20.40;43.60;;;;;;3052663;19;4383;-23
2023/01/15 04:46:52;;;;;;;;;;;20.40;43.40;;;;;;3052806;19;4544;-23
2023/01/15 04:47:52;;;;;;;;;;;20.40;43.50;;;;;;3053281;19;4410;-23
2023/01/15 04:48:53;;;;;;;;;;;20.40;43.40;;;;;;3053760;19;4363;-23
2023/01/15 04:49:54;;;;;;;;;;;20.40;43.30;;;;;;3053797;19;4618;-22
2023/01/15 04:50:54;;;;;;;;;;;20.40;43.40;;;;;;3052768;19;4342;-22
2023/01/15 04:51:55;;;;;;;;;;;20.40;43.30;;;;;;3054903;19;4492;-23
2023/01/15 04:52:55;;;;;;;;;;;20.40;43.40;;;;;;3054168;19;4474;-22
2023/01/15 04:53:56;;;;;;;;;;;20.40;43.40;;;;;;3055394;19;4308;-23
2023/01/15 04:54:57;;;;;;;;;;;20.40;43.30;;;;;;3055557;19;4491;-23
2023/01/15 04:56:01;;;;;;;;;;;20.50;43.20;;;;;;3054841;19;4513;-23
2023/01/15 04:57:02;;;;;;;;;;;20.60;42.90;;;;;;3054290;19;4545;-23
2023/01/15 04:58:03;;;;;;;;;;;20.70;42.90;;;;;;3053495;19;4546;-23
2023/01/15 04:59:03;;;;;;;;;;;20.70;42.80;;;;;;3051053;19;4237;-23
2023/01/15 05:00:04;;;;;;;;;;;20.60;42.70;;;;;;3052052;19;4335;-22
2023/01/15 05:01:12;;;;;;;;;;;20.70;42.70;;;;;;3051165;19;4442;-23
2023/01/15 05:02:13;;;;;;;;;;;20.70;42.70;;;;;;3050502;19;4469;-24
2023/01/15 05:03:14;;;;;;;;;;;20.60;42.60;;;;;;3052635;19;4517;-23
2023/01/15 05:04:14;;;;;;;;;;;20.70;42.70;;;;;;3051401;19;4492;-22
2023/01/15 05:05:15;;;;;;;;;;;20.70;42.70;;;;;;3052020;19;4533;-23
2023/01/15 05:06:17;;;;;;;;;;;20.60;42.70;;;;;;3049595;19;4363;-22
2023/01/15 05:07:18;;;;;;;;;;;20.70;42.70;;;;;;3052093;19;4590;-23
2023/01/15 05:08:19;;;;;;;;;;;20.60;42.80;;;;;;3051282;19;4472;-22
2023/01/15 05:09:20;;;;;;;;;;;20.70;42.80;;;;;;3052298;19;4461;-23
2023/01/15 05:10:20;;;;;;;;;;;20.70;42.70;;;;;;3053304;19;4530;-23
2023/01/15 05:11:21;;;;;;;;;;;20.80;42.70;;;;;;3052723;19;4717;-22
2023/01/15 05:12:22;;;;;;;;;;;20.80;42.40;;;;;;3050429;19;4375;-22
2023/01/15 05:13:22;;;;;;;;;;;20.90;42.40;;;;;;3054085;19;4543;-22
2023/01/15 05:14:23;;;;;;;;;;;20.90;42.30;;;;;;3051081;19;4355;-23
2023/01/15 05:15:23;;;;;;;;;;;20.90;42.30;;;;;;3052121;19;4396;-23
2023/01/15 05:16:26;;;;;;;;;;;20.90;42.20;;;;;;3051973;19;4550;-22
2023/01/15 05:17:26;;;;;;;;;;;20.90;42.20;;;;;;3052158;19;4449;-23
2023/01/15 05:18:27;;;;;;;;;;;20.90;42.20;;;;;;3051950;19;4374;-22
2023/01/15 05:19:28;;;;;;;;;;;20.90;42.20;;;;;;3050924;19;4557;-23
2023/01/15 05:20:28;;;;;;;;;;;20.90;42.20;;;;;;3052361;19;4531;-22
2023/01/15 05:21:30;;;;;;;;;;;20.90;42.20;;;;;;3051522;19;4507;-22
2023/01/15 05:22:31;;;;;;;;;;;20.80;42.20;;;;;;3053321;19;4456;-23
2023/01/15 05:23:32;;;;;;;;;;;20.80;42.10;;;;;;3051558;19;4539;-22
2023/01/15 05:24:32;;;;;;;;;;;20.90;42.30;;;;;;3053734;19;4520;-22
2023/01/15 05:25:36;;;;;;;;;;;20.90;42.20;;;;;;3052377;19;4429;-22
2023/01/15 05:26:36;;;;;;;;;;;20.90;42.30;;;;;;3051642;19;4537;-23
2023/01/15 05:27:37;;;;;;;;;;;20.80;42.20;;;;;;3053878;19;4607;-22
2023/01/15 05:28:38;;;;;;;;;;;20.80;42.40;;;;;;3052118;19;4548;-23
2023/01/15 05:29:38;;;;;;;;;;;20.80;42.50;;;;;;3052676;19;4647;-22
2023/01/15 05:30:39;;;;;;;;;;;20.70;42.40;;;;;;3051358;19;4401;-23
2023/01/15 05:31:41;;;;;;;;;;;20.70;42.40;;;;;;3054138;19;4558;-22
2023/01/15 05:32:42;;;;;;;;;;;20.70;42.50;;;;;;3052469;19;4552;-23
2023/01/15 05:33:43;;;;;;;;;;;20.70;42.50;;;;;;3052946;19;4454;-23
2023/01/15 05:34:44;;;;;;;;;;;20.60;42.40;;;;;;3052332;19;4594;-22
2023/01/15 05:35:44;;;;;;;;;;;20.70;42.60;;;;;;3054705;19;4502;-23
2023/01/15 05:36:45;;;;;;;;;;;20.70;42.60;;;;;;3052093;19;4542;-23
2023/01/15 05:37:46;;;;;;;;;;;20.70;42.50;;;;;;3052784;19;4525;-23
2023/01/15 05:38:46;;;;;;;;;;;20.70;42.50;;;;;;3053731;19;4478;-23
2023/01/15 05:39:47;;;;;;;;;;;20.80;42.50;;;;;;3054980;19;4604;-23
2023/01/15 05:40:48;;;;;;;;;;;20.80;42.30;;;;;;3054213;19;4354;-23
2023/01/15 05:41:48;;;;;;;;;;;20.80;42.20;;;;;;3054783;19;4458;-23
2023/01/15 05:42:49;;;;;;;;;;;20.80;42.20;;;;;;3053792;19;4557;-22
2023/01/15 05:43:50;;;;;;;;;;;20.80;42.30;;;;;;3052684;19;4603;-22
2023/01/15 05:44:51;;;;;;;;;;;20.80;42.30;;;;;;3053321;19;4393;-23
2023/01/15 05:45:52;;;;;;;;;;;20.90;42.30;;;;;;3052267;19;4399;-23
2023/01/15 05:46:54;;;;;;;;;;;20.90;42.20;;;;;;3050599;19;4378;-23
2023/01/15 05:47:54;;;;;;;;;;;20.80;42.10;;;;;;3052758;19;4534;-23
2023/01/15 05:49:02;;;;;;;;;;;20.90;42.20;;;;;;3051558;19;4478;-23
2023/01/15 05:50:03;;;;;;;;;;;20.90;42.20;;;;;;3050844;19;4447;-22
2023/01/15 05:51:04;;;;;;;;;;;20.90;42.10;;;;;;3052254;19;4513;-23
2023/01/15 05:52:04;;;;;;;;;;;20.90;42.10;;;;;;3052089;19;4482;-22
2023/01/15 05:53:06;;;;;;;;;;;20.90;42.00;;;;;;3056375;19;4431;-23
2023/01/15 05:54:07;;;;;;;;;;;20.90;42.70;;;;;;3055468;19;4494;-23
2023/01/15 05:55:08;;;;;;;;;;;21.00;42.00;;;;;;3056477;19;4708;-23
2023/01/15 05:56:08;;;;;;;;;;;21.00;42.00;;;;;;3054599;19;4382;-23
2023/01/15 05:57:10;;;;;;;;;;;21.00;42.00;;;;;;3055338;19;4435;-22
2023/01/15 05:58:11;;;;;;;;;;;20.90;41.90;;;;;;3055631;19;4568;-23
2023/01/15 05:59:12;;;;;;;;;;;20.90;41.90;;;;;;3055528;19;4579;-22
2023/01/15 06:00:13;;;;;;;;;;;20.90;41.90;;;;;;3054376;19;4448;-23
2023/01/15 06:01:14;;;;;;;;;;;20.90;41.90;;;;;;3055313;19;1118;-23
2023/01/15 06:02:14;;;;;;;;;;;20.90;41.90;;;;;;3051144;19;4374;-24
2023/01/15 06:03:15;;;;;;;;;;;20.90;41.90;;;;;;3054660;19;4548;-22
2023/01/15 06:04:20;;;;;;;;;;;20.90;41.90;;;;;;3053242;19;4506;-22
2023/01/15 06:05:20;;;;;;;;;;;20.80;42.50;;;;;;3055691;19;4515;-23
2023/01/15 06:06:21;;;;;;;;;;;20.90;41.90;;;;;;3052875;19;4530;-23
2023/01/15 06:07:22;;;;;;;;;;;20.90;41.90;;;;;;3054386;19;4497;-27
2023/01/15 06:08:22;;;;;;;;;;;20.90;41.90;;;;;;3051480;19;4297;-22
2023/01/15 06:09:26;;;;;;;;;;;20.90;42.00;;;;;;3054996;19;4535;-22
2023/01/15 06:10:27;;;;;;;;;;;20.90;42.00;;;;;;3053171;19;4469;-22
2023/01/15 06:11:27;;;;;;;;;;;20.90;41.90;;;;;;3056267;19;4498;-22
2023/01/15 06:12:28;;;;;;;;;;;20.90;42.00;;;;;;3053849;19;4517;-22
2023/01/15 06:13:29;;;;;;;;;;;20.80;42.00;;;;;;3052844;19;4329;-23
2023/01/15 06:14:29;;;;;;;;;;;20.80;41.90;;;;;;3053078;19;4531;-22
2023/01/15 06:15:30;;;;;;;;;;;20.80;41.90;;;;;;3053354;19;4540;-24
2023/01/15 06:16:31;;;;;;;;;;;20.80;42.00;;;;;;3056279;19;4584;-23
2023/01/15 06:17:31;;;;;;;;;;;20.80;41.90;;;;;;3054979;19;4593;-23
2023/01/15 06:18:34;;;;;;;;;;;20.80;41.90;;;;;;3055494;19;4393;-22
2023/01/15 06:19:34;;;;;;;;;;;20.70;41.90;;;;;;3053533;19;4526;-22
2023/01/15 06:20:36;;;;;;;;;;;20.70;42.00;;;;;;3056072;19;4563;-22
2023/01/15 06:21:36;;;;;;;;;;;20.70;42.10;;;;;;3052310;19;4405;-24